sensor_id;sensor_type;location;lat;lon;timestamp;pressure;altitude;pressure_sealevel;temperature;humidity
76726;BME280;65651;53.154;17.916;2023-11-19T00:00:35;101660.46;;;-2.10;89.48
76726;BME280;65651;53.154;17.916;2023-11-19T00:03:22;101662.26;;;-2.10;89.58
76726;BME280;65651;53.154;17.916;2023-11-19T00:05:52;101668.77;;;-2.11;89.80
76726;BME280;65651;53.154;17.916;2023-11-19T00:08:20;101656.49;;;-2.12;89.77
76726;BME280;65651;53.154;17.916;2023-11-19T00:10:47;101644.23;;;-2.14;89.61
76726;BME280;65651;53.154;17.916;2023-11-19T00:13:15;101640.05;;;-2.16;89.65
76726;BME280;65651;53.154;17.916;2023-11-19T00:15:43;101633.39;;;-2.17;89.74
76726;BME280;65651;53.154;17.916;2023-11-19T00:18:12;101633.06;;;-2.18;89.90
76726;BME280;65651;53.154;17.916;2023-11-19T00:20:39;101631.88;;;-2.19;89.69
76726;BME280;65651;53.154;17.916;2023-11-19T00:23:11;101634.52;;;-2.19;89.92
76726;BME280;65651;53.154;17.916;2023-11-19T00:25:38;101631.36;;;-2.20;89.81
76726;BME280;65651;53.154;17.916;2023-11-19T00:28:06;101631.91;;;-2.20;89.67
76726;BME280;65651;53.154;17.916;2023-11-19T00:30:33;101631.05;;;-2.21;90.01
76726;BME280;65651;53.154;17.916;2023-11-19T00:33:00;101632.09;;;-2.20;89.99
76726;BME280;65651;53.154;17.916;2023-11-19T00:35:28;101628.52;;;-2.19;89.95
76726;BME280;65651;53.154;17.916;2023-11-19T00:37:55;101622.51;;;-2.18;89.84
76726;BME280;65651;53.154;17.916;2023-11-19T00:40:22;101620.02;;;-2.16;89.94
76726;BME280;65651;53.154;17.916;2023-11-19T00:42:50;101612.05;;;-2.14;90.06
76726;BME280;65651;53.154;17.916;2023-11-19T00:45:17;101606.56;;;-2.13;90.16
76726;BME280;65651;53.154;17.916;2023-11-19T00:47:44;101600.05;;;-2.12;90.13
76726;BME280;65651;53.154;17.916;2023-11-19T00:50:12;101593.04;;;-2.13;90.02
76726;BME280;65651;53.154;17.916;2023-11-19T00:52:39;101584.39;;;-2.12;90.04
76726;BME280;65651;53.154;17.916;2023-11-19T00:55:07;101586.13;;;-2.12;90.08
76726;BME280;65651;53.154;17.916;2023-11-19T00:57:35;101585.70;;;-2.09;90.14
76726;BME280;65651;53.154;17.916;2023-11-19T01:00:03;101587.70;;;-2.05;90.10
76726;BME280;65651;53.154;17.916;2023-11-19T01:02:36;101586.98;;;-1.98;90.03
76726;BME280;65651;53.154;17.916;2023-11-19T01:05:04;101579.48;;;-1.94;90.04
76726;BME280;65651;53.154;17.916;2023-11-19T01:07:32;101569.31;;;-1.88;90.11
76726;BME280;65651;53.154;17.916;2023-11-19T01:09:59;101557.74;;;-1.85;90.22
76726;BME280;65651;53.154;17.916;2023-11-19T01:12:26;101551.21;;;-1.83;90.17
76726;BME280;65651;53.154;17.916;2023-11-19T01:14:54;101554.05;;;-1.78;90.20
76726;BME280;65651;53.154;17.916;2023-11-19T01:17:23;101546.14;;;-1.73;90.21
76726;BME280;65651;53.154;17.916;2023-11-19T01:19:50;101542.82;;;-1.68;90.26
76726;BME280;65651;53.154;17.916;2023-11-19T01:22:17;101542.34;;;-1.63;90.18
76726;BME280;65651;53.154;17.916;2023-11-19T01:24:45;101539.05;;;-1.59;90.20
76726;BME280;65651;53.154;17.916;2023-11-19T01:27:14;101536.45;;;-1.55;90.26
76726;BME280;65651;53.154;17.916;2023-11-19T01:29:41;101532.71;;;-1.52;90.08
76726;BME280;65651;53.154;17.916;2023-11-19T01:32:10;101528.45;;;-1.52;90.05
76726;BME280;65651;53.154;17.916;2023-11-19T01:34:40;101534.11;;;-1.52;90.07
76726;BME280;65651;53.154;17.916;2023-11-19T01:37:08;101530.51;;;-1.50;89.95
76726;BME280;65651;53.154;17.916;2023-11-19T01:39:39;101521.86;;;-1.50;89.83
76726;BME280;65651;53.154;17.916;2023-11-19T01:42:07;101518.02;;;-1.50;89.97
76726;BME280;65651;53.154;17.916;2023-11-19T01:44:34;101505.12;;;-1.54;89.82
76726;BME280;65651;53.154;17.916;2023-11-19T01:47:02;101498.02;;;-1.53;89.76
76726;BME280;65651;53.154;17.916;2023-11-19T01:49:31;101488.98;;;-1.56;89.69
76726;BME280;65651;53.154;17.916;2023-11-19T01:52:00;101482.53;;;-1.58;89.62
76726;BME280;65651;53.154;17.916;2023-11-19T01:54:28;101481.70;;;-1.60;89.73
76726;BME280;65651;53.154;17.916;2023-11-19T01:56:56;101473.15;;;-1.63;89.68
76726;BME280;65651;53.154;17.916;2023-11-19T01:59:24;101469.15;;;-1.64;89.67
76726;BME280;65651;53.154;17.916;2023-11-19T02:01:54;101467.23;;;-1.64;89.44
76726;BME280;65651;53.154;17.916;2023-11-19T02:04:22;101463.74;;;-1.65;89.73
76726;BME280;65651;53.154;17.916;2023-11-19T02:06:51;101454.56;;;-1.64;89.60
76726;BME280;65651;53.154;17.916;2023-11-19T02:09:21;101461.05;;;-1.64;89.63
76726;BME280;65651;53.154;17.916;2023-11-19T02:11:48;101462.67;;;-1.65;89.64
76726;BME280;65651;53.154;17.916;2023-11-19T02:14:18;101459.61;;;-1.63;89.46
76726;BME280;65651;53.154;17.916;2023-11-19T02:16:45;101457.29;;;-1.62;89.48
76726;BME280;65651;53.154;17.916;2023-11-19T02:19:12;101452.67;;;-1.61;89.74
76726;BME280;65651;53.154;17.916;2023-11-19T02:21:40;101432.95;;;-1.60;89.70
76726;BME280;65651;53.154;17.916;2023-11-19T02:24:10;101424.13;;;-1.59;89.79
76726;BME280;65651;53.154;17.916;2023-11-19T02:26:39;101413.25;;;-1.61;89.59
76726;BME280;65651;53.154;17.916;2023-11-19T02:29:11;101409.83;;;-1.64;89.54
76726;BME280;65651;53.154;17.916;2023-11-19T02:31:40;101403.84;;;-1.64;89.51
76726;BME280;65651;53.154;17.916;2023-11-19T02:34:07;101407.13;;;-1.62;89.61
76726;BME280;65651;53.154;17.916;2023-11-19T02:36:38;101403.10;;;-1.63;89.55
76726;BME280;65651;53.154;17.916;2023-11-19T02:39:05;101400.52;;;-1.65;89.53
76726;BME280;65651;53.154;17.916;2023-11-19T02:41:37;101392.79;;;-1.65;89.61
76726;BME280;65651;53.154;17.916;2023-11-19T02:44:06;101392.59;;;-1.64;89.51
76726;BME280;65651;53.154;17.916;2023-11-19T02:46:34;101382.58;;;-1.64;89.51
76726;BME280;65651;53.154;17.916;2023-11-19T02:49:02;101370.41;;;-1.64;89.42
76726;BME280;65651;53.154;17.916;2023-11-19T02:51:29;101362.66;;;-1.64;89.51
76726;BME280;65651;53.154;17.916;2023-11-19T02:53:57;101362.94;;;-1.62;89.55
76726;BME280;65651;53.154;17.916;2023-11-19T02:56:25;101366.46;;;-1.62;89.61
76726;BME280;65651;53.154;17.916;2023-11-19T02:58:53;101365.13;;;-1.59;89.41
76726;BME280;65651;53.154;17.916;2023-11-19T03:01:24;101361.90;;;-1.57;89.73
76726;BME280;65651;53.154;17.916;2023-11-19T03:04:03;101357.52;;;-1.57;89.55
76726;BME280;65651;53.154;17.916;2023-11-19T03:06:30;101350.70;;;-1.54;89.58
76726;BME280;65651;53.154;17.916;2023-11-19T03:08:59;101349.88;;;-1.50;89.62
76726;BME280;65651;53.154;17.916;2023-11-19T03:11:32;101342.90;;;-1.47;89.78
76726;BME280;65651;53.154;17.916;2023-11-19T03:14:00;101334.56;;;-1.45;89.45
76726;BME280;65651;53.154;17.916;2023-11-19T03:16:27;101329.09;;;-1.44;89.51
76726;BME280;65651;53.154;17.916;2023-11-19T03:18:54;101318.03;;;-1.40;89.64
76726;BME280;65651;53.154;17.916;2023-11-19T03:21:29;101310.20;;;-1.38;89.65
76726;BME280;65651;53.154;17.916;2023-11-19T03:23:56;101296.85;;;-1.39;89.60
76726;BME280;65651;53.154;17.916;2023-11-19T03:26:28;101287.67;;;-1.39;89.58
76726;BME280;65651;53.154;17.916;2023-11-19T03:28:56;101285.73;;;-1.38;89.53
76726;BME280;65651;53.154;17.916;2023-11-19T03:31:26;101271.96;;;-1.37;89.60
76726;BME280;65651;53.154;17.916;2023-11-19T03:33:54;101263.27;;;-1.36;89.56
76726;BME280;65651;53.154;17.916;2023-11-19T03:36:21;101260.99;;;-1.36;89.52
76726;BME280;65651;53.154;17.916;2023-11-19T03:38:50;101256.95;;;-1.36;89.60
76726;BME280;65651;53.154;17.916;2023-11-19T03:41:20;101248.84;;;-1.35;89.62
76726;BME280;65651;53.154;17.916;2023-11-19T03:43:48;101247.78;;;-1.35;89.69
76726;BME280;65651;53.154;17.916;2023-11-19T03:46:17;101242.17;;;-1.37;89.54
76726;BME280;65651;53.154;17.916;2023-11-19T03:48:46;101243.95;;;-1.37;89.55
76726;BME280;65651;53.154;17.916;2023-11-19T03:51:14;101243.23;;;-1.36;89.66
76726;BME280;65651;53.154;17.916;2023-11-19T03:53:43;101245.84;;;-1.35;89.58
76726;BME280;65651;53.154;17.916;2023-11-19T03:56:11;101249.52;;;-1.34;89.64
76726;BME280;65651;53.154;17.916;2023-11-19T03:58:39;101245.95;;;-1.33;89.55
76726;BME280;65651;53.154;17.916;2023-11-19T04:01:11;101243.04;;;-1.31;89.54
76726;BME280;65651;53.154;17.916;2023-11-19T04:03:39;101237.52;;;-1.29;89.52
76726;BME280;65651;53.154;17.916;2023-11-19T04:06:07;101229.04;;;-1.28;89.66
76726;BME280;65651;53.154;17.916;2023-11-19T04:08:34;101221.92;;;-1.26;89.50
76726;BME280;65651;53.154;17.916;2023-11-19T04:11:04;101221.49;;;-1.25;89.55
76726;BME280;65651;53.154;17.916;2023-11-19T04:13:32;101216.91;;;-1.24;89.72
76726;BME280;65651;53.154;17.916;2023-11-19T04:16:00;101214.46;;;-1.25;89.43
76726;BME280;65651;53.154;17.916;2023-11-19T04:18:27;101211.80;;;-1.24;89.62
76726;BME280;65651;53.154;17.916;2023-11-19T04:20:54;101203.62;;;-1.22;89.50
76726;BME280;65651;53.154;17.916;2023-11-19T04:23:21;101198.64;;;-1.21;89.53
76726;BME280;65651;53.154;17.916;2023-11-19T04:25:49;101181.02;;;-1.20;89.50
76726;BME280;65651;53.154;17.916;2023-11-19T04:28:16;101175.73;;;-1.20;89.44
76726;BME280;65651;53.154;17.916;2023-11-19T04:30:43;101177.14;;;-1.20;89.45
76726;BME280;65651;53.154;17.916;2023-11-19T04:33:11;101176.83;;;-1.21;89.28
76726;BME280;65651;53.154;17.916;2023-11-19T04:35:38;101174.41;;;-1.18;89.29
76726;BME280;65651;53.154;17.916;2023-11-19T04:38:06;101167.58;;;-1.14;89.30
76726;BME280;65651;53.154;17.916;2023-11-19T04:40:34;101162.99;;;-1.10;89.32
76726;BME280;65651;53.154;17.916;2023-11-19T04:43:01;101159.30;;;-1.05;89.30
76726;BME280;65651;53.154;17.916;2023-11-19T04:45:28;101152.33;;;-1.02;89.31
76726;BME280;65651;53.154;17.916;2023-11-19T04:47:56;101145.66;;;-0.99;89.30
76726;BME280;65651;53.154;17.916;2023-11-19T04:50:23;101134.34;;;-0.97;89.25
76726;BME280;65651;53.154;17.916;2023-11-19T04:52:50;101125.81;;;-0.96;89.18
76726;BME280;65651;53.154;17.916;2023-11-19T04:55:17;101125.02;;;-0.94;89.17
76726;BME280;65651;53.154;17.916;2023-11-19T04:57:45;101121.56;;;-0.90;89.17
76726;BME280;65651;53.154;17.916;2023-11-19T05:00:12;101113.34;;;-0.88;89.12
76726;BME280;65651;53.154;17.916;2023-11-19T05:02:40;101109.90;;;-0.86;89.03
76726;BME280;65651;53.154;17.916;2023-11-19T05:05:11;101104.11;;;-0.82;88.95
76726;BME280;65651;53.154;17.916;2023-11-19T05:07:39;101099.27;;;-0.79;88.96
76726;BME280;65651;53.154;17.916;2023-11-19T05:10:07;101099.94;;;-0.78;88.88
76726;BME280;65651;53.154;17.916;2023-11-19T05:12:34;101102.25;;;-0.79;88.75
76726;BME280;65651;53.154;17.916;2023-11-19T05:15:02;101101.15;;;-0.78;88.73
76726;BME280;65651;53.154;17.916;2023-11-19T05:17:29;101100.20;;;-0.76;88.82
76726;BME280;65651;53.154;17.916;2023-11-19T05:19:57;101094.63;;;-0.74;88.79
76726;BME280;65651;53.154;17.916;2023-11-19T05:22:24;101086.17;;;-0.74;88.68
76726;BME280;65651;53.154;17.916;2023-11-19T05:24:53;101076.49;;;-0.75;88.69
76726;BME280;65651;53.154;17.916;2023-11-19T05:27:20;101069.81;;;-0.75;88.72
76726;BME280;65651;53.154;17.916;2023-11-19T05:29:47;101066.09;;;-0.74;88.65
76726;BME280;65651;53.154;17.916;2023-11-19T05:32:15;101062.48;;;-0.72;88.68
76726;BME280;65651;53.154;17.916;2023-11-19T05:34:42;101060.70;;;-0.71;88.61
76726;BME280;65651;53.154;17.916;2023-11-19T05:37:09;101063.46;;;-0.70;88.59
76726;BME280;65651;53.154;17.916;2023-11-19T05:39:37;101061.10;;;-0.69;88.64
76726;BME280;65651;53.154;17.916;2023-11-19T05:42:05;101058.71;;;-0.66;88.67
76726;BME280;65651;53.154;17.916;2023-11-19T05:44:32;101058.62;;;-0.64;88.58
76726;BME280;65651;53.154;17.916;2023-11-19T05:46:59;101051.09;;;-0.61;88.72
76726;BME280;65651;53.154;17.916;2023-11-19T05:49:27;101048.70;;;-0.59;88.62
76726;BME280;65651;53.154;17.916;2023-11-19T05:51:54;101044.08;;;-0.58;88.58
76726;BME280;65651;53.154;17.916;2023-11-19T05:54:23;101044.17;;;-0.57;88.57
76726;BME280;65651;53.154;17.916;2023-11-19T05:56:50;101039.73;;;-0.55;88.48
76726;BME280;65651;53.154;17.916;2023-11-19T05:59:21;101030.10;;;-0.56;88.66
76726;BME280;65651;53.154;17.916;2023-11-19T06:01:49;101031.33;;;-0.52;88.34
76726;BME280;65651;53.154;17.916;2023-11-19T06:04:17;101024.97;;;-0.52;88.46
76726;BME280;65651;53.154;17.916;2023-11-19T06:06:45;101021.27;;;-0.52;88.47
76726;BME280;65651;53.154;17.916;2023-11-19T06:09:12;101015.24;;;-0.51;88.41
76726;BME280;65651;53.154;17.916;2023-11-19T06:11:40;101008.55;;;-0.51;88.28
76726;BME280;65651;53.154;17.916;2023-11-19T06:14:07;100995.59;;;-0.53;88.43
76726;BME280;65651;53.154;17.916;2023-11-19T06:16:34;100984.49;;;-0.53;88.35
76726;BME280;65651;53.154;17.916;2023-11-19T06:19:03;100981.16;;;-0.54;88.39
76726;BME280;65651;53.154;17.916;2023-11-19T06:21:31;100983.83;;;-0.55;88.36
76726;BME280;65651;53.154;17.916;2023-11-19T06:23:58;100976.91;;;-0.53;88.54
76726;BME280;65651;53.154;17.916;2023-11-19T06:26:26;100969.27;;;-0.52;88.34
76726;BME280;65651;53.154;17.916;2023-11-19T06:28:54;100963.77;;;-0.51;88.33
76726;BME280;65651;53.154;17.916;2023-11-19T06:31:21;100962.13;;;-0.51;88.35
76726;BME280;65651;53.154;17.916;2023-11-19T06:33:48;100959.04;;;-0.48;88.27
76726;BME280;65651;53.154;17.916;2023-11-19T06:36:16;100955.77;;;-0.46;88.34
76726;BME280;65651;53.154;17.916;2023-11-19T06:38:43;100954.71;;;-0.42;88.37
76726;BME280;65651;53.154;17.916;2023-11-19T06:41:11;100952.62;;;-0.39;88.28
76726;BME280;65651;53.154;17.916;2023-11-19T06:43:38;100950.91;;;-0.36;88.19
76726;BME280;65651;53.154;17.916;2023-11-19T06:46:05;100948.58;;;-0.31;88.46
76726;BME280;65651;53.154;17.916;2023-11-19T06:48:33;100947.63;;;-0.25;88.45
76726;BME280;65651;53.154;17.916;2023-11-19T06:51:00;100942.86;;;-0.21;88.29
76726;BME280;65651;53.154;17.916;2023-11-19T06:53:27;100933.85;;;-0.17;88.35
76726;BME280;65651;53.154;17.916;2023-11-19T06:55:55;100929.58;;;-0.13;88.29
76726;BME280;65651;53.154;17.916;2023-11-19T06:58:23;100927.50;;;-0.06;88.23
76726;BME280;65651;53.154;17.916;2023-11-19T07:00:50;100918.30;;;-0.02;88.32
76726;BME280;65651;53.154;17.916;2023-11-19T07:03:18;100915.88;;;0.01;87.97
76726;BME280;65651;53.154;17.916;2023-11-19T07:05:45;100908.80;;;0.02;88.08
76726;BME280;65651;53.154;17.916;2023-11-19T07:08:12;100907.45;;;0.01;88.12
76726;BME280;65651;53.154;17.916;2023-11-19T07:10:40;100902.91;;;0.03;88.09
76726;BME280;65651;53.154;17.916;2023-11-19T07:13:07;100900.99;;;0.03;87.95
76726;BME280;65651;53.154;17.916;2023-11-19T07:15:34;100897.41;;;0.04;88.01
76726;BME280;65651;53.154;17.916;2023-11-19T07:18:02;100891.16;;;0.05;87.93
76726;BME280;65651;53.154;17.916;2023-11-19T07:20:29;100892.53;;;0.06;88.08
76726;BME280;65651;53.154;17.916;2023-11-19T07:22:57;100887.23;;;0.07;87.89
76726;BME280;65651;53.154;17.916;2023-11-19T07:25:25;100886.19;;;0.06;87.78
76726;BME280;65651;53.154;17.916;2023-11-19T07:27:53;100885.88;;;0.05;87.75
76726;BME280;65651;53.154;17.916;2023-11-19T07:30:20;100883.98;;;0.04;87.71
76726;BME280;65651;53.154;17.916;2023-11-19T07:32:48;100880.46;;;0.04;87.81
76726;BME280;65651;53.154;17.916;2023-11-19T07:35:16;100877.40;;;0.05;87.77
76726;BME280;65651;53.154;17.916;2023-11-19T07:37:44;100875.33;;;0.08;87.60
76726;BME280;65651;53.154;17.916;2023-11-19T07:40:15;100872.42;;;0.10;87.70
76726;BME280;65651;53.154;17.916;2023-11-19T07:42:43;100867.35;;;0.12;87.68
76726;BME280;65651;53.154;17.916;2023-11-19T07:45:10;100863.30;;;0.16;87.69
76726;BME280;65651;53.154;17.916;2023-11-19T07:47:38;100854.15;;;0.19;87.28
76726;BME280;65651;53.154;17.916;2023-11-19T07:50:06;100845.84;;;0.19;87.33
76726;BME280;65651;53.154;17.916;2023-11-19T07:52:33;100836.99;;;0.19;87.39
76726;BME280;65651;53.154;17.916;2023-11-19T07:55:00;100833.93;;;0.21;87.31
76726;BME280;65651;53.154;17.916;2023-11-19T07:57:28;100829.61;;;0.22;87.28
76726;BME280;65651;53.154;17.916;2023-11-19T07:59:57;100824.39;;;0.24;87.27
76726;BME280;65651;53.154;17.916;2023-11-19T08:02:25;100814.23;;;0.26;87.40
76726;BME280;65651;53.154;17.916;2023-11-19T08:04:52;100808.56;;;0.27;87.28
76726;BME280;65651;53.154;17.916;2023-11-19T08:07:22;100805.53;;;0.31;87.26
76726;BME280;65651;53.154;17.916;2023-11-19T08:09:49;100799.58;;;0.34;87.22
76726;BME280;65651;53.154;17.916;2023-11-19T08:12:16;100800.14;;;0.37;86.93
76726;BME280;65651;53.154;17.916;2023-11-19T08:14:44;100800.89;;;0.40;86.99
76726;BME280;65651;53.154;17.916;2023-11-19T08:17:11;100799.20;;;0.41;86.90
76726;BME280;65651;53.154;17.916;2023-11-19T08:19:39;100794.90;;;0.43;87.06
76726;BME280;65651;53.154;17.916;2023-11-19T08:22:06;100792.42;;;0.42;86.78
76726;BME280;65651;53.154;17.916;2023-11-19T08:24:34;100784.70;;;0.45;86.82
76726;BME280;65651;53.154;17.916;2023-11-19T08:27:01;100780.33;;;0.47;86.96
76726;BME280;65651;53.154;17.916;2023-11-19T08:29:28;100766.22;;;0.51;86.86
76726;BME280;65651;53.154;17.916;2023-11-19T08:31:56;100763.90;;;0.55;86.79
76726;BME280;65651;53.154;17.916;2023-11-19T08:34:23;100763.64;;;0.57;86.69
76726;BME280;65651;53.154;17.916;2023-11-19T08:36:50;100762.49;;;0.58;86.80
76726;BME280;65651;53.154;17.916;2023-11-19T08:39:20;100757.69;;;0.59;86.81
76726;BME280;65651;53.154;17.916;2023-11-19T08:41:51;100754.55;;;0.62;86.63
76726;BME280;65651;53.154;17.916;2023-11-19T08:44:18;100744.84;;;0.61;86.68
76726;BME280;65651;53.154;17.916;2023-11-19T08:46:48;100735.13;;;0.61;86.68
76726;BME280;65651;53.154;17.916;2023-11-19T08:49:16;100723.90;;;0.63;86.80
76726;BME280;65651;53.154;17.916;2023-11-19T08:51:43;100725.17;;;0.66;86.38
76726;BME280;65651;53.154;17.916;2023-11-19T08:54:11;100718.41;;;0.67;86.39
76726;BME280;65651;53.154;17.916;2023-11-19T08:56:39;100710.09;;;0.70;86.28
76726;BME280;65651;53.154;17.916;2023-11-19T08:59:07;100713.20;;;0.78;86.71
76726;BME280;65651;53.154;17.916;2023-11-19T09:01:35;100710.35;;;0.89;86.51
76726;BME280;65651;53.154;17.916;2023-11-19T09:04:03;100709.26;;;0.99;86.64
76726;BME280;65651;53.154;17.916;2023-11-19T09:06:31;100711.27;;;1.11;86.47
76726;BME280;65651;53.154;17.916;2023-11-19T09:08:59;100705.45;;;1.20;86.23
76726;BME280;65651;53.154;17.916;2023-11-19T09:11:29;100700.58;;;1.29;86.53
76726;BME280;65651;53.154;17.916;2023-11-19T09:13:58;100694.73;;;1.32;86.42
76726;BME280;65651;53.154;17.916;2023-11-19T09:16:25;100690.05;;;1.33;86.05
76726;BME280;65651;53.154;17.916;2023-11-19T09:18:53;100684.98;;;1.32;86.14
76726;BME280;65651;53.154;17.916;2023-11-19T09:21:20;100681.08;;;1.29;86.30
76726;BME280;65651;53.154;17.916;2023-11-19T09:23:47;100673.39;;;1.28;86.08
76726;BME280;65651;53.154;17.916;2023-11-19T09:26:16;100663.11;;;1.29;85.97
76726;BME280;65651;53.154;17.916;2023-11-19T09:28:43;100662.88;;;1.26;86.03
76726;BME280;65651;53.154;17.916;2023-11-19T09:31:17;100656.95;;;1.28;86.00
76726;BME280;65651;53.154;17.916;2023-11-19T09:33:45;100652.52;;;1.31;86.07
76726;BME280;65651;53.154;17.916;2023-11-19T09:36:12;100637.02;;;1.33;86.34
76726;BME280;65651;53.154;17.916;2023-11-19T09:38:43;100634.03;;;1.36;86.22
76726;BME280;65651;53.154;17.916;2023-11-19T09:41:11;100621.95;;;1.40;86.06
76726;BME280;65651;53.154;17.916;2023-11-19T09:43:41;100614.92;;;1.45;86.44
76726;BME280;65651;53.154;17.916;2023-11-19T09:46:13;100611.38;;;1.49;85.85
76726;BME280;65651;53.154;17.916;2023-11-19T09:48:42;100604.94;;;1.50;85.94
76726;BME280;65651;53.154;17.916;2023-11-19T09:51:11;100599.51;;;1.49;85.90
76726;BME280;65651;53.154;17.916;2023-11-19T09:53:39;100598.84;;;1.49;86.05
76726;BME280;65651;53.154;17.916;2023-11-19T09:56:07;100596.71;;;1.48;85.94
76726;BME280;65651;53.154;17.916;2023-11-19T09:58:37;100589.41;;;1.49;85.95
76726;BME280;65651;53.154;17.916;2023-11-19T10:01:04;100582.20;;;1.49;85.74
76726;BME280;65651;53.154;17.916;2023-11-19T10:03:39;100576.31;;;1.50;85.98
76726;BME280;65651;53.154;17.916;2023-11-19T10:06:07;100574.79;;;1.48;85.61
76726;BME280;65651;53.154;17.916;2023-11-19T10:08:43;100570.60;;;1.44;85.68
76726;BME280;65651;53.154;17.916;2023-11-19T10:11:10;100567.50;;;1.43;85.66
76726;BME280;65651;53.154;17.916;2023-11-19T10:13:39;100565.09;;;1.42;85.78
76726;BME280;65651;53.154;17.916;2023-11-19T10:16:09;100555.60;;;1.44;85.67
76726;BME280;65651;53.154;17.916;2023-11-19T10:18:46;100554.27;;;1.48;85.83
76726;BME280;65651;53.154;17.916;2023-11-19T10:21:14;100549.80;;;1.52;85.70
76726;BME280;65651;53.154;17.916;2023-11-19T10:23:49;100550.55;;;1.54;85.88
76726;BME280;65651;53.154;17.916;2023-11-19T10:26:19;100548.03;;;1.58;86.03
76726;BME280;65651;53.154;17.916;2023-11-19T10:28:47;100545.85;;;1.59;85.87
76726;BME280;65651;53.154;17.916;2023-11-19T10:31:16;100537.55;;;1.58;85.83
76726;BME280;65651;53.154;17.916;2023-11-19T10:33:45;100535.99;;;1.58;85.77
76726;BME280;65651;53.154;17.916;2023-11-19T10:36:13;100536.39;;;1.60;86.05
76726;BME280;65651;53.154;17.916;2023-11-19T10:38:51;100531.23;;;1.58;85.85
76726;BME280;65651;53.154;17.916;2023-11-19T10:41:32;100527.20;;;1.54;85.71
76726;BME280;65651;53.154;17.916;2023-11-19T10:44:00;100526.77;;;1.50;85.71
76726;BME280;65651;53.154;17.916;2023-11-19T10:46:41;100523.00;;;1.48;85.77
76726;BME280;65651;53.154;17.916;2023-11-19T10:49:09;100518.08;;;1.45;85.94
76726;BME280;65651;53.154;17.916;2023-11-19T10:51:45;100511.96;;;1.43;85.87
76726;BME280;65651;53.154;17.916;2023-11-19T10:54:19;100514.17;;;1.41;85.86
76726;BME280;65651;53.154;17.916;2023-11-19T10:56:51;100508.08;;;1.43;85.95
76726;BME280;65651;53.154;17.916;2023-11-19T10:59:21;100506.42;;;1.44;85.98
76726;BME280;65651;53.154;17.916;2023-11-19T11:01:52;100499.50;;;1.44;86.19
76726;BME280;65651;53.154;17.916;2023-11-19T11:04:25;100491.34;;;1.42;86.14
76726;BME280;65651;53.154;17.916;2023-11-19T11:06:55;100486.30;;;1.40;86.16
76726;BME280;65651;53.154;17.916;2023-11-19T11:09:23;100476.59;;;1.34;86.12
76726;BME280;65651;53.154;17.916;2023-11-19T11:11:54;100478.58;;;1.27;86.53
76726;BME280;65651;53.154;17.916;2023-11-19T11:14:25;100473.15;;;1.17;86.85
76726;BME280;65651;53.154;17.916;2023-11-19T11:16:56;100468.52;;;1.09;86.59
76726;BME280;65651;53.154;17.916;2023-11-19T11:19:25;100459.63;;;1.01;86.70
76726;BME280;65651;53.154;17.916;2023-11-19T11:21:54;100452.02;;;0.95;87.10
76726;BME280;65651;53.154;17.916;2023-11-19T11:24:31;100446.33;;;0.90;87.05
76726;BME280;65651;53.154;17.916;2023-11-19T11:33:25;100421.20;;;0.71;87.39
76726;BME280;65651;53.154;17.916;2023-11-19T11:38:24;100406.09;;;0.64;87.90
76726;BME280;65651;53.154;17.916;2023-11-19T11:41:21;100397.38;;;0.60;87.78
76726;BME280;65651;53.154;17.916;2023-11-19T11:43:53;100390.80;;;0.53;87.58
76726;BME280;65651;53.154;17.916;2023-11-19T11:49:06;100380.88;;;0.48;87.97
76726;BME280;65651;53.154;17.916;2023-11-19T11:54:26;100371.14;;;0.42;87.94
76726;BME280;65651;53.154;17.916;2023-11-19T12:02:10;100354.04;;;0.36;88.52
76726;BME280;65651;53.154;17.916;2023-11-19T12:04:41;100354.42;;;0.32;88.62
76726;BME280;65651;53.154;17.916;2023-11-19T12:07:14;100353.34;;;0.33;88.56
76726;BME280;65651;53.154;17.916;2023-11-19T12:09:42;100352.20;;;0.34;88.60
76726;BME280;65651;53.154;17.916;2023-11-19T12:20:04;100297.39;;;0.33;88.94
76726;BME280;65651;53.154;17.916;2023-11-19T12:22:39;100289.73;;;0.31;88.98
76726;BME280;65651;53.154;17.916;2023-11-19T12:25:08;100297.11;;;0.28;89.00
76726;BME280;65651;53.154;17.916;2023-11-19T12:27:37;100295.57;;;0.27;89.17
76726;BME280;65651;53.154;17.916;2023-11-19T12:30:07;100283.14;;;0.26;89.24
76726;BME280;65651;53.154;17.916;2023-11-19T12:35:08;100282.93;;;0.23;89.25
76726;BME280;65651;53.154;17.916;2023-11-19T12:37:45;100301.54;;;0.21;89.15
76726;BME280;65651;53.154;17.916;2023-11-19T12:40:18;100321.12;;;0.22;89.38
76726;BME280;65651;53.154;17.916;2023-11-19T12:42:47;100322.70;;;0.22;89.53
76726;BME280;65651;53.154;17.916;2023-11-19T12:45:15;100307.30;;;0.22;89.51
76726;BME280;65651;53.154;17.916;2023-11-19T12:47:44;100294.73;;;0.26;89.64
76726;BME280;65651;53.154;17.916;2023-11-19T12:50:11;100285.88;;;0.30;89.50
76726;BME280;65651;53.154;17.916;2023-11-19T12:52:39;100285.30;;;0.31;89.56
76726;BME280;65651;53.154;17.916;2023-11-19T12:55:35;100286.26;;;0.33;89.59
76726;BME280;65651;53.154;17.916;2023-11-19T12:58:03;100283.55;;;0.34;89.60
76726;BME280;65651;53.154;17.916;2023-11-19T13:00:31;100280.09;;;0.33;89.50
76726;BME280;65651;53.154;17.916;2023-11-19T13:02:59;100280.28;;;0.33;89.72
76726;BME280;65651;53.154;17.916;2023-11-19T13:05:31;100278.71;;;0.32;89.70
76726;BME280;65651;53.154;17.916;2023-11-19T13:08:08;100268.05;;;0.30;89.69
76726;BME280;65651;53.154;17.916;2023-11-19T13:10:52;100264.50;;;0.34;89.86
76726;BME280;65651;53.154;17.916;2023-11-19T13:13:20;100265.11;;;0.32;89.62
76726;BME280;65651;53.154;17.916;2023-11-19T13:15:48;100265.40;;;0.33;89.67
76726;BME280;65651;53.154;17.916;2023-11-19T13:18:16;100260.59;;;0.34;89.84
76726;BME280;65651;53.154;17.916;2023-11-19T13:20:44;100257.00;;;0.32;89.79
76726;BME280;65651;53.154;17.916;2023-11-19T13:23:11;100259.10;;;0.33;89.64